createdAt,value
2019-02-21T00:01:32.700Z,10.83
2019-02-21T00:04:01.377Z,10.77
2019-02-21T00:06:29.905Z,11.20
2019-02-21T00:08:58.451Z,10.57
2019-02-21T00:11:27.889Z,10.30
2019-02-21T00:13:57.207Z,11.40
2019-02-21T00:16:26.543Z,11.20
2019-02-21T00:18:55.868Z,10.47
2019-02-21T00:21:25.268Z,9.67
2019-02-21T00:23:54.638Z,9.60
2019-02-21T00:26:23.983Z,11.70
2019-02-21T00:28:53.402Z,11.90
2019-02-21T00:31:22.823Z,10.50
2019-02-21T00:33:52.116Z,10.23
2019-02-21T00:36:20.691Z,10.83
2019-02-21T00:38:50.018Z,10.50
2019-02-21T00:41:19.333Z,10.33
2019-02-21T00:43:48.670Z,11.40
2019-02-21T00:46:18.077Z,9.80
2019-02-21T00:48:47.427Z,10.00
2019-02-21T00:51:16.763Z,10.93
2019-02-21T00:53:46.093Z,10.63
2019-02-21T00:56:15.449Z,10.90
2019-02-21T00:58:43.993Z,9.37
2019-02-21T01:01:12.527Z,10.43
2019-02-21T01:03:41.862Z,10.67
2019-02-21T01:06:11.170Z,11.00
2019-02-21T01:08:40.543Z,10.37
2019-02-21T01:11:09.947Z,10.13
2019-02-21T01:13:39.303Z,10.67
2019-02-21T01:16:08.646Z,10.67
2019-02-21T01:21:40.531Z,10.47
2019-02-21T01:24:09.862Z,12.23
2019-02-21T01:26:39.185Z,12.40
2019-02-21T01:29:08.500Z,12.67
2019-02-21T01:31:37.030Z,12.77
2019-02-21T01:34:05.572Z,12.83
2019-02-21T01:36:35.003Z,12.87
2019-02-21T01:41:49.480Z,12.23
2019-02-21T01:44:18.825Z,11.70
2019-02-21T01:46:47.333Z,13.57
2019-02-21T01:49:16.679Z,13.50
2019-02-21T01:51:45.222Z,12.23
2019-02-21T01:54:14.536Z,13.07
2019-02-21T01:56:43.866Z,13.10
2019-02-21T01:59:13.187Z,13.67
2019-02-21T02:01:42.575Z,12.47
2019-02-21T02:04:11.924Z,13.63
2019-02-21T02:06:41.248Z,12.43
2019-02-21T02:09:12.001Z,13.13
2019-02-21T02:11:40.647Z,14.17
2019-02-21T02:14:09.172Z,12.83
2019-02-21T02:16:38.536Z,13.40
2019-02-21T02:19:07.876Z,13.07
2019-02-21T02:21:37.195Z,12.13
2019-02-21T02:24:06.546Z,12.10
2019-02-21T02:26:35.172Z,11.73
2019-02-21T02:29:04.614Z,12.17
2019-02-21T02:31:34.051Z,12.53
2019-02-21T02:34:03.384Z,11.37
2019-02-21T02:36:32.713Z,12.80
2019-02-21T02:39:01.248Z,11.60
2019-02-21T02:41:30.596Z,12.17
2019-02-21T02:43:59.106Z,11.83
2019-02-21T02:46:28.508Z,12.40
2019-02-21T02:48:57.835Z,13.43
2019-02-21T02:51:27.166Z,11.20
2019-02-21T02:53:56.489Z,12.10
2019-02-21T02:56:25.809Z,12.07
2019-02-21T02:58:55.144Z,11.20
2019-02-21T03:01:34.399Z,11.33
2019-02-21T03:04:13.698Z,10.97
2019-02-21T03:06:43.010Z,12.13
2019-02-21T03:09:12.043Z,11.73
2019-02-21T03:11:41.353Z,12.30
2019-02-21T03:14:10.683Z,12.63
2019-02-21T03:16:40.016Z,11.83
2019-02-21T03:19:09.347Z,11.20
2019-02-21T03:21:38.660Z,11.80
2019-02-21T03:24:07.982Z,12.30
2019-02-21T03:26:37.314Z,13.83
2019-02-21T03:29:06.656Z,12.60
2019-02-21T03:31:52.720Z,13.07
2019-02-21T03:34:24.403Z,12.43
2019-02-21T03:36:53.730Z,11.83
2019-02-21T03:39:22.455Z,12.63
2019-02-21T03:41:51.773Z,12.40
2019-02-21T03:44:21.119Z,12.77
2019-02-21T03:46:50.441Z,13.33
2019-02-21T03:49:19.774Z,12.57
2019-02-21T03:51:49.101Z,12.77
2019-02-21T03:54:18.423Z,13.50
2019-02-21T03:56:47.809Z,12.60
2019-02-21T03:59:16.294Z,13.47
2019-02-21T04:01:45.614Z,12.90
2019-02-21T04:04:14.954Z,12.13
2019-02-21T04:06:44.269Z,12.67
2019-02-21T04:09:13.603Z,12.83
2019-02-21T04:11:42.940Z,13.93
2019-02-21T04:14:11.480Z,13.43
2019-02-21T04:16:40.812Z,13.87
2019-02-21T04:19:10.209Z,13.00
2019-02-21T04:21:39.590Z,13.53
2019-02-21T04:24:08.085Z,13.53
2019-02-21T04:26:36.637Z,12.50
2019-02-21T04:29:06.029Z,13.33
2019-02-21T04:31:35.358Z,14.27
2019-02-21T04:34:04.696Z,13.30
2019-02-21T04:36:36.751Z,14.00
2019-02-21T04:39:05.480Z,13.50
2019-02-21T04:41:34.821Z,12.50
2019-02-21T04:44:04.276Z,14.90
2019-02-21T04:46:33.686Z,14.57
2019-02-21T04:49:03.218Z,14.87
2019-02-21T04:51:32.549Z,13.53
2019-02-21T04:54:01.876Z,14.50
2019-02-21T04:56:30.386Z,13.87
2019-02-21T04:58:58.910Z,12.73
2019-02-21T05:01:28.249Z,12.87
2019-02-21T05:03:57.653Z,14.30
2019-02-21T05:06:27.032Z,13.63
2019-02-21T05:08:56.359Z,14.57
2019-02-21T05:11:25.682Z,14.20
2019-02-21T05:13:54.315Z,14.30
2019-02-21T05:16:23.678Z,14.63
2019-02-21T05:18:52.403Z,15.37
2019-02-21T05:21:21.747Z,15.27
2019-02-21T05:23:50.388Z,16.87
2019-02-21T05:26:26.015Z,16.70
2019-02-21T05:28:54.540Z,19.87
2019-02-21T05:31:42.587Z,24.50
2019-02-21T05:34:30.582Z,24.33
2019-02-21T05:37:10.743Z,23.80
2019-02-21T05:39:52.229Z,19.30
2019-02-21T05:42:40.205Z,18.47
2019-02-21T05:45:23.222Z,16.93
2019-02-21T05:48:11.218Z,15.73
2019-02-21T05:50:48.090Z,16.60
2019-02-21T05:53:36.082Z,19.00
2019-02-21T05:56:24.075Z,16.43
2019-02-21T05:58:59.253Z,15.67
2019-02-21T06:01:48.059Z,16.40
2019-02-21T06:04:36.047Z,15.60
2019-02-21T06:07:22.208Z,15.00
2019-02-21T06:10:10.995Z,14.47
2019-02-21T06:13:00.120Z,15.60
2019-02-21T06:15:48.182Z,14.93
2019-02-21T06:18:36.167Z,15.20
2019-02-21T06:21:24.172Z,16.93
2019-02-21T06:24:12.168Z,14.83
2019-02-21T06:27:01.121Z,14.53
2019-02-21T06:29:49.961Z,15.13
2019-02-21T06:32:18.558Z,16.03
2019-02-21T06:34:47.113Z,14.10
2019-02-21T06:37:15.675Z,15.93
2019-02-21T06:39:45.042Z,14.80
2019-02-21T06:42:14.384Z,15.70
2019-02-21T06:44:43.720Z,14.40
2019-02-21T06:47:13.073Z,14.90
2019-02-21T06:49:42.399Z,15.67
2019-02-21T06:52:11.717Z,14.87
2019-02-21T06:54:41.059Z,13.67
2019-02-21T06:57:10.399Z,14.53
2019-02-21T06:59:43.459Z,13.50
2019-02-21T07:02:28.968Z,13.37
2019-02-21T07:04:58.314Z,13.27
2019-02-21T07:07:26.744Z,13.73
2019-02-21T07:09:56.099Z,13.47
2019-02-21T07:12:25.438Z,13.40
2019-02-21T07:14:54.787Z,14.13
2019-02-21T07:17:24.132Z,12.53
2019-02-21T07:19:53.470Z,15.37
2019-02-21T07:22:22.807Z,14.33
2019-02-21T07:24:55.991Z,14.47
2019-02-21T07:27:24.593Z,14.67
2019-02-21T07:29:53.950Z,12.93
2019-02-21T07:32:23.290Z,13.70
2019-02-21T07:34:52.632Z,13.53
2019-02-21T07:37:21.988Z,12.93
2019-02-21T07:39:51.324Z,14.40
2019-02-21T07:42:19.864Z,12.97
2019-02-21T07:44:49.206Z,12.83
2019-02-21T07:47:18.507Z,13.53
2019-02-21T07:49:47.888Z,14.03
2019-02-21T07:52:17.203Z,12.43
2019-02-21T07:54:49.365Z,13.73
2019-02-21T07:57:35.812Z,12.17
2019-02-21T08:00:05.554Z,13.47
2019-02-21T08:02:34.899Z,11.97
2019-02-21T08:05:03.799Z,12.03
2019-02-21T08:07:32.443Z,11.40
2019-02-21T08:10:01.924Z,11.03
2019-02-21T08:12:30.442Z,11.80
2019-02-21T08:14:59.795Z,11.83
2019-02-21T08:17:28.274Z,11.93
2019-02-21T08:20:07.831Z,11.93
2019-02-21T08:22:46.946Z,13.13
2019-02-21T08:25:15.389Z,12.63
2019-02-21T08:27:44.737Z,14.43
2019-02-21T08:30:13.920Z,13.53
2019-02-21T08:33:01.925Z,14.13
2019-02-21T08:35:31.332Z,15.57
2019-02-21T08:38:00.660Z,14.63
2019-02-21T08:40:30.007Z,11.63
2019-02-21T08:42:58.562Z,10.63
2019-02-21T08:45:27.127Z,11.27
2019-02-21T08:47:55.670Z,10.47
2019-02-21T08:50:24.151Z,10.20
2019-02-21T08:52:53.486Z,11.43
2019-02-21T08:55:22.943Z,10.23
2019-02-21T08:57:52.286Z,10.40
2019-02-21T09:00:21.647Z,11.70
2019-02-21T09:02:50.985Z,9.77
2019-02-21T09:05:20.330Z,9.63
2019-02-21T09:07:49.674Z,10.00
2019-02-21T09:10:18.253Z,10.60
2019-02-21T09:12:48.530Z,12.07
2019-02-21T09:15:17.311Z,11.13
2019-02-21T09:17:45.966Z,11.27
2019-02-21T09:20:14.492Z,10.63
2019-02-21T09:22:43.049Z,10.70
2019-02-21T09:25:11.958Z,10.90
2019-02-21T09:27:40.491Z,10.17
2019-02-21T09:30:29.982Z,9.97
2019-02-21T09:32:58.664Z,9.47
2019-02-21T09:35:27.287Z,10.07
2019-02-21T09:37:56.649Z,9.00
2019-02-21T09:40:28.408Z,10.73
2019-02-21T09:43:15.215Z,9.63
2019-02-21T09:45:44.542Z,9.70
2019-02-21T09:48:13.863Z,9.40
2019-02-21T09:50:43.281Z,9.17
2019-02-21T09:53:12.614Z,8.80
2019-02-21T09:55:41.980Z,8.40
2019-02-21T09:58:10.496Z,9.63
2019-02-21T10:00:39.845Z,9.87
2019-02-21T10:03:09.223Z,9.60
2019-02-21T10:05:38.579Z,8.90
2019-02-21T10:08:07.911Z,8.73
2019-02-21T10:10:37.237Z,8.97
2019-02-21T10:13:06.610Z,8.70
2019-02-21T10:15:35.932Z,11.67
2019-02-21T10:18:05.248Z,11.33
2019-02-21T10:20:34.988Z,9.10
2019-02-21T10:23:03.801Z,8.93
2019-02-21T10:25:32.463Z,8.80
2019-02-21T10:28:01.104Z,9.70
2019-02-21T10:30:29.646Z,9.90
2019-02-21T10:32:58.982Z,9.10
2019-02-21T10:35:27.532Z,9.77
2019-02-21T10:37:56.097Z,9.73
2019-02-21T10:40:24.743Z,10.13
2019-02-21T10:42:53.188Z,10.20
2019-02-21T10:45:21.943Z,10.43
2019-02-21T10:47:51.300Z,9.67
2019-02-21T10:50:20.753Z,9.33
2019-02-21T10:52:49.501Z,10.03
2019-02-21T10:55:18.859Z,10.23
2019-02-21T10:57:48.281Z,9.67
2019-02-21T11:00:38.203Z,10.07
2019-02-21T11:03:07.618Z,9.33
2019-02-21T11:05:37.144Z,8.33
2019-02-21T11:08:06.501Z,9.87
2019-02-21T11:10:35.152Z,10.50
2019-02-21T11:13:03.786Z,10.07
2019-02-21T11:15:33.206Z,9.93
2019-02-21T11:18:02.526Z,10.20
2019-02-21T11:20:31.864Z,9.93
2019-02-21T11:23:01.219Z,10.77
2019-02-21T11:25:30.568Z,9.23
2019-02-21T11:27:59.895Z,9.43
2019-02-21T11:30:28.524Z,10.23
2019-02-21T11:32:57.061Z,9.97
2019-02-21T11:35:26.397Z,10.43
2019-02-21T11:37:54.942Z,10.43
2019-02-21T11:40:24.396Z,9.13
2019-02-21T11:42:53.746Z,10.00
2019-02-21T14:46:24.475Z,10.57
2019-02-21T14:48:53.835Z,11.40
2019-02-21T14:51:23.167Z,10.67
2019-02-21T14:53:52.512Z,10.03
2019-02-21T14:56:21.847Z,8.40
2019-02-21T14:58:51.152Z,9.00
2019-02-21T15:01:20.514Z,8.93
2019-02-21T15:03:49.202Z,9.93
2019-02-21T15:06:26.700Z,9.87
2019-02-21T15:09:07.924Z,9.70
2019-02-21T15:11:37.394Z,10.67
2019-02-21T15:14:06.961Z,9.37
2019-02-21T15:16:36.347Z,9.43
2019-02-21T15:19:05.665Z,10.67
2019-02-21T15:21:35.141Z,10.37
2019-02-21T15:24:04.532Z,9.87
2019-02-21T15:26:33.982Z,11.50
2019-02-21T15:29:02.936Z,9.97
2019-02-21T15:31:32.169Z,10.10
2019-02-21T15:34:01.218Z,10.00
2019-02-21T15:36:37.993Z,10.43
2019-02-21T15:39:19.815Z,9.90
2019-02-21T15:41:49.167Z,8.90
2019-02-21T15:44:18.513Z,8.50
2019-02-21T15:46:47.860Z,9.37
2019-02-21T15:49:17.617Z,10.37
2019-02-21T15:51:47.066Z,11.37
2019-02-21T15:54:16.399Z,11.73
2019-02-21T15:56:45.774Z,14.10
2019-02-21T15:59:15.377Z,17.37
2019-02-21T16:01:47.505Z,23.67
2019-02-21T16:04:35.331Z,37.80
2019-02-21T16:07:22.544Z,35.37
2019-02-21T16:09:51.359Z,41.30
2019-02-21T16:12:21.169Z,37.00
2019-02-21T16:15:10.491Z,38.10
2019-02-21T16:17:40.199Z,43.43
2019-02-21T16:20:28.434Z,46.90
2019-02-21T16:22:57.054Z,45.63
2019-02-21T16:25:25.594Z,42.50
2019-02-21T16:27:55.614Z,37.77
2019-02-21T16:30:44.149Z,37.43
2019-02-21T16:33:13.478Z,34.13
2019-02-21T16:35:42.811Z,31.73
2019-02-21T16:38:12.130Z,33.47
2019-02-21T16:40:41.459Z,32.17
2019-02-21T16:43:10.795Z,34.10
2019-02-21T16:45:46.213Z,40.13
2019-02-21T16:48:29.378Z,38.50
2019-02-21T16:50:58.744Z,42.30
2019-02-21T16:53:28.086Z,43.70
2019-02-21T16:55:57.406Z,48.37
2019-02-21T16:58:26.731Z,56.67
2019-02-21T17:00:56.862Z,53.93
2019-02-21T17:03:45.302Z,48.03
2019-02-21T17:06:14.701Z,64.93
2019-02-21T17:08:44.029Z,85.00
2019-02-21T17:11:13.381Z,101.23
2019-02-21T17:13:42.704Z,125.70
2019-02-21T17:16:12.032Z,132.67
2019-02-21T17:18:40.578Z,131.47
2019-02-21T17:21:09.302Z,123.87
2019-02-21T17:23:38.635Z,116.60
2019-02-21T17:26:07.944Z,115.30
2019-02-21T17:28:37.275Z,112.33
2019-02-21T17:31:06.612Z,112.90
2019-02-21T17:33:35.936Z,121.73
2019-02-21T17:36:05.292Z,134.20
2019-02-21T17:38:34.662Z,150.80
2019-02-21T17:41:04.003Z,155.63
2019-02-21T17:43:33.328Z,133.40
2019-02-21T17:46:02.162Z,119.80
2019-02-21T17:48:31.498Z,107.83
2019-02-21T17:51:00.126Z,102.17
2019-02-21T17:53:30.375Z,93.03
2019-02-21T17:55:59.740Z,83.87
2019-02-21T18:01:32.944Z,76.43
2019-02-21T18:07:04.369Z,80.00
2019-02-21T18:09:33.718Z,72.77
2019-02-21T18:15:06.492Z,61.97
2019-02-21T18:17:36.376Z,62.27
2019-02-21T18:20:06.413Z,60.67
2019-02-21T18:22:35.672Z,57.43
2019-02-21T18:25:08.627Z,58.90
2019-02-21T18:27:37.447Z,60.07
2019-02-21T18:32:51.759Z,69.17
2019-02-21T18:35:37.183Z,66.07
2019-02-21T18:38:05.847Z,66.67
2019-02-21T18:40:35.213Z,61.17
2019-02-21T18:43:03.735Z,61.70
2019-02-21T18:45:33.069Z,57.00
2019-02-21T18:48:02.502Z,55.73
2019-02-21T18:53:34.980Z,59.53
2019-02-21T18:59:06.901Z,66.10
2019-02-21T19:01:36.246Z,71.97
2019-02-21T19:04:05.786Z,71.77
2019-02-21T19:06:35.122Z,58.53
2019-02-21T19:12:07.546Z,43.07
2019-02-21T19:14:36.886Z,39.93
2019-02-21T19:17:06.226Z,40.60
2019-02-21T19:19:35.546Z,40.37
2019-02-21T19:22:05.194Z,41.57
2019-02-21T19:24:36.977Z,42.10
2019-02-21T19:27:23.893Z,42.97
2019-02-21T19:29:53.246Z,47.23
2019-02-21T19:32:22.569Z,48.57
2019-02-21T19:34:51.911Z,52.60
2019-02-21T19:37:21.339Z,52.17
2019-02-21T19:39:49.886Z,50.67
2019-02-21T19:42:19.230Z,51.10
2019-02-21T19:44:47.859Z,52.13
2019-02-21T19:47:17.184Z,50.67
2019-02-21T19:49:46.626Z,46.87
2019-02-21T19:52:15.967Z,45.60
2019-02-21T19:54:45.363Z,43.90
2019-02-21T19:57:15.465Z,44.40
2019-02-21T19:59:44.950Z,43.03
2019-02-21T20:02:27.538Z,47.53
2019-02-21T20:04:57.209Z,47.70
2019-02-21T20:07:26.336Z,50.17
2019-02-21T20:13:00.719Z,50.83
2019-02-21T20:15:30.003Z,50.70
2019-02-21T20:17:59.919Z,46.47
2019-02-21T20:20:29.582Z,45.93
2019-02-21T20:22:58.912Z,46.57
2019-02-21T20:25:28.222Z,43.83
2019-02-21T20:27:57.544Z,40.90
2019-02-21T20:30:27.432Z,38.57
2019-02-21T20:32:56.783Z,38.50
2019-02-21T20:35:26.117Z,36.10
2019-02-21T20:37:55.533Z,34.47
2019-02-21T20:40:24.888Z,32.97
2019-02-21T20:42:54.182Z,34.67
2019-02-21T20:45:24.812Z,33.87
2019-02-21T20:48:12.726Z,34.53
2019-02-21T20:50:42.054Z,33.87
2019-02-21T20:53:12.638Z,33.37
2019-02-21T20:55:44.041Z,36.20
2019-02-21T20:58:12.977Z,34.13
2019-02-21T21:00:43.375Z,33.87
2019-02-21T21:03:13.037Z,34.47
2019-02-21T21:05:42.751Z,32.50
2019-02-21T21:08:14.067Z,34.17
2019-02-21T21:10:44.666Z,35.27
2019-02-21T21:13:34.379Z,34.37
2019-02-21T21:16:04.071Z,37.07
2019-02-21T21:18:33.410Z,34.83
2019-02-21T21:21:06.751Z,34.23
2019-02-21T21:23:35.740Z,33.67
2019-02-21T21:26:06.004Z,34.17
2019-02-21T21:28:36.648Z,34.77
2019-02-21T21:31:15.431Z,34.70
2019-02-21T21:36:48.683Z,37.47
2019-02-21T21:39:46.863Z,43.60
2019-02-21T21:42:16.949Z,44.63
2019-02-21T21:44:47.139Z,43.63
2019-02-21T21:47:16.104Z,46.70
2019-02-21T21:49:46.768Z,46.30
2019-02-21T21:52:19.924Z,45.33
2019-02-21T21:54:49.882Z,48.60
2019-02-21T21:57:24.633Z,50.23
2019-02-21T21:59:57.050Z,52.47
2019-02-21T22:02:32.652Z,53.70
2019-02-21T22:05:07.398Z,53.90
2019-02-21T22:10:57.977Z,49.40
2019-02-21T22:13:32.070Z,49.43
2019-02-21T22:16:02.988Z,50.03
2019-02-21T22:18:39.739Z,48.20
2019-02-21T22:21:14.337Z,50.40
2019-02-21T22:26:51.162Z,50.30
2019-02-21T22:29:45.243Z,52.77
2019-02-21T22:35:39.326Z,44.63
2019-02-21T22:41:16.957Z,43.00
2019-02-21T22:43:50.585Z,42.43
2019-02-21T22:49:10.612Z,42.20
2019-02-21T22:51:52.102Z,44.13
2019-02-21T22:54:22.165Z,45.73
2019-02-21T22:57:10.524Z,45.97
2019-02-21T22:59:47.207Z,44.07
2019-02-21T23:02:20.535Z,46.57
2019-02-21T23:05:33.703Z,46.03
2019-02-21T23:08:15.927Z,44.67
2019-02-21T23:10:45.431Z,47.87
2019-02-21T23:13:17.946Z,47.43
2019-02-21T23:15:51.618Z,51.87
2019-02-21T23:18:25.067Z,52.43
2019-02-21T23:20:54.686Z,53.37
2019-02-21T23:23:24.692Z,50.90
2019-02-21T23:29:18.996Z,51.13
2019-02-21T23:31:50.157Z,52.80
2019-02-21T23:34:40.909Z,51.60
2019-02-21T23:37:12.865Z,54.47
2019-02-21T23:39:48.245Z,55.97
2019-02-21T23:42:21.709Z,52.50
2019-02-21T23:44:52.177Z,52.27
2019-02-21T23:47:25.132Z,43.47
2019-02-21T23:49:57.485Z,43.37
2019-02-21T23:52:27.170Z,44.20
2019-02-21T23:55:09.486Z,42.13
2019-02-21T23:57:40.370Z,43.20
